sensor_id;sensor_type;location;lat;lon;timestamp;P1;durP1;ratioP1;P2;durP2;ratioP2
11386;SDS011;5748;53.102;8.456;2023-02-16T00:01:18;9.03;;;7.63;;
11386;SDS011;5748;53.102;8.456;2023-02-16T00:03:48;9.37;;;7.87;;
11386;SDS011;5748;53.102;8.456;2023-02-16T00:06:17;9.27;;;7.53;;
11386;SDS011;5748;53.102;8.456;2023-02-16T00:08:45;9.20;;;7.20;;
11386;SDS011;5748;53.102;8.456;2023-02-16T00:11:16;10.27;;;7.63;;
11386;SDS011;5748;53.102;8.456;2023-02-16T00:14:06;9.23;;;7.67;;
11386;SDS011;5748;53.102;8.456;2023-02-16T00:16:36;9.13;;;7.53;;
11386;SDS011;5748;53.102;8.456;2023-02-16T00:19:12;8.27;;;7.13;;
11386;SDS011;5748;53.102;8.456;2023-02-16T00:21:47;8.90;;;7.57;;
11386;SDS011;5748;53.102;8.456;2023-02-16T00:24:16;8.93;;;7.83;;
11386;SDS011;5748;53.102;8.456;2023-02-16T00:26:43;8.37;;;7.43;;
11386;SDS011;5748;53.102;8.456;2023-02-16T00:29:16;10.07;;;8.13;;
11386;SDS011;5748;53.102;8.456;2023-02-16T00:31:47;9.37;;;7.77;;
11386;SDS011;5748;53.102;8.456;2023-02-16T00:34:21;8.70;;;7.47;;
11386;SDS011;5748;53.102;8.456;2023-02-16T00:36:56;10.77;;;8.07;;
11386;SDS011;5748;53.102;8.456;2023-02-16T00:39:30;8.47;;;7.20;;
11386;SDS011;5748;53.102;8.456;2023-02-16T00:41:58;9.20;;;7.63;;
11386;SDS011;5748;53.102;8.456;2023-02-16T00:44:32;9.50;;;7.83;;
11386;SDS011;5748;53.102;8.456;2023-02-16T00:47:01;10.80;;;8.23;;
11386;SDS011;5748;53.102;8.456;2023-02-16T00:49:46;9.60;;;7.80;;
11386;SDS011;5748;53.102;8.456;2023-02-16T00:52:32;10.00;;;8.43;;
11386;SDS011;5748;53.102;8.456;2023-02-16T00:55:01;11.80;;;8.43;;
11386;SDS011;5748;53.102;8.456;2023-02-16T00:57:33;9.77;;;7.83;;
11386;SDS011;5748;53.102;8.456;2023-02-16T01:00:06;8.67;;;7.47;;
11386;SDS011;5748;53.102;8.456;2023-02-16T01:02:40;9.47;;;7.73;;
11386;SDS011;5748;53.102;8.456;2023-02-16T01:05:08;11.13;;;8.60;;
11386;SDS011;5748;53.102;8.456;2023-02-16T01:07:35;10.60;;;8.20;;
11386;SDS011;5748;53.102;8.456;2023-02-16T01:10:20;8.63;;;7.73;;
11386;SDS011;5748;53.102;8.456;2023-02-16T01:13:05;10.63;;;8.03;;
11386;SDS011;5748;53.102;8.456;2023-02-16T01:15:34;10.27;;;7.67;;
11386;SDS011;5748;53.102;8.456;2023-02-16T01:18:02;9.40;;;7.97;;
11386;SDS011;5748;53.102;8.456;2023-02-16T01:20:29;10.63;;;8.63;;
11386;SDS011;5748;53.102;8.456;2023-02-16T01:22:56;10.00;;;8.37;;
11386;SDS011;5748;53.102;8.456;2023-02-16T01:25:23;9.93;;;8.37;;
11386;SDS011;5748;53.102;8.456;2023-02-16T01:27:50;10.57;;;9.00;;
11386;SDS011;5748;53.102;8.456;2023-02-16T01:30:21;11.10;;;8.07;;
11386;SDS011;5748;53.102;8.456;2023-02-16T01:32:51;10.27;;;8.43;;
11386;SDS011;5748;53.102;8.456;2023-02-16T01:35:19;11.90;;;9.20;;
11386;SDS011;5748;53.102;8.456;2023-02-16T01:37:49;11.00;;;9.07;;
11386;SDS011;5748;53.102;8.456;2023-02-16T01:40:18;10.40;;;8.60;;
11386;SDS011;5748;53.102;8.456;2023-02-16T01:42:57;10.77;;;8.33;;
11386;SDS011;5748;53.102;8.456;2023-02-16T01:45:29;12.20;;;8.83;;
11386;SDS011;5748;53.102;8.456;2023-02-16T01:48:03;11.73;;;8.90;;
11386;SDS011;5748;53.102;8.456;2023-02-16T01:50:36;11.13;;;8.97;;
11386;SDS011;5748;53.102;8.456;2023-02-16T01:53:13;12.30;;;9.53;;
11386;SDS011;5748;53.102;8.456;2023-02-16T01:55:47;11.57;;;9.33;;
11386;SDS011;5748;53.102;8.456;2023-02-16T02:04:50;9.67;;;8.30;;
11386;SDS011;5748;53.102;8.456;2023-02-16T02:07:40;10.07;;;8.30;;
11386;SDS011;5748;53.102;8.456;2023-02-16T02:10:13;10.97;;;9.33;;
11386;SDS011;5748;53.102;8.456;2023-02-16T02:12:48;12.47;;;9.43;;
11386;SDS011;5748;53.102;8.456;2023-02-16T02:15:22;10.93;;;9.00;;
11386;SDS011;5748;53.102;8.456;2023-02-16T02:17:53;11.83;;;9.37;;
11386;SDS011;5748;53.102;8.456;2023-02-16T02:20:23;10.23;;;8.57;;
11386;SDS011;5748;53.102;8.456;2023-02-16T02:26:14;10.83;;;8.80;;
11386;SDS011;5748;53.102;8.456;2023-02-16T02:29:29;11.53;;;9.07;;
11386;SDS011;5748;53.102;8.456;2023-02-16T02:32:28;10.93;;;8.87;;
11386;SDS011;5748;53.102;8.456;2023-02-16T02:35:16;10.97;;;9.10;;
11386;SDS011;5748;53.102;8.456;2023-02-16T02:38:00;10.30;;;8.50;;
11386;SDS011;5748;53.102;8.456;2023-02-16T02:40:40;9.73;;;8.50;;
11386;SDS011;5748;53.102;8.456;2023-02-16T02:43:21;11.30;;;9.20;;
11386;SDS011;5748;53.102;8.456;2023-02-16T02:45:53;10.27;;;8.53;;
11386;SDS011;5748;53.102;8.456;2023-02-16T02:48:28;11.27;;;8.83;;
11386;SDS011;5748;53.102;8.456;2023-02-16T02:50:56;10.53;;;8.30;;
11386;SDS011;5748;53.102;8.456;2023-02-16T02:53:43;11.67;;;8.73;;
11386;SDS011;5748;53.102;8.456;2023-02-16T02:56:14;11.10;;;8.77;;
11386;SDS011;5748;53.102;8.456;2023-02-16T02:59:03;11.40;;;8.67;;
11386;SDS011;5748;53.102;8.456;2023-02-16T03:01:51;11.60;;;8.63;;
11386;SDS011;5748;53.102;8.456;2023-02-16T03:04:24;11.43;;;8.87;;
11386;SDS011;5748;53.102;8.456;2023-02-16T03:06:54;11.80;;;8.80;;
11386;SDS011;5748;53.102;8.456;2023-02-16T03:09:23;10.67;;;8.83;;
11386;SDS011;5748;53.102;8.456;2023-02-16T03:11:59;10.27;;;8.13;;
11386;SDS011;5748;53.102;8.456;2023-02-16T03:14:48;9.07;;;7.87;;
11386;SDS011;5748;53.102;8.456;2023-02-16T03:17:21;9.70;;;8.17;;
11386;SDS011;5748;53.102;8.456;2023-02-16T03:20:12;10.00;;;8.27;;
11386;SDS011;5748;53.102;8.456;2023-02-16T03:22:59;10.70;;;8.37;;
11386;SDS011;5748;53.102;8.456;2023-02-16T03:25:45;9.83;;;8.30;;
11386;SDS011;5748;53.102;8.456;2023-02-16T03:28:30;10.10;;;8.00;;
11386;SDS011;5748;53.102;8.456;2023-02-16T03:31:19;10.57;;;8.53;;
11386;SDS011;5748;53.102;8.456;2023-02-16T03:33:50;10.57;;;8.37;;
11386;SDS011;5748;53.102;8.456;2023-02-16T03:36:18;10.63;;;8.97;;
11386;SDS011;5748;53.102;8.456;2023-02-16T03:38:46;10.27;;;8.80;;
11386;SDS011;5748;53.102;8.456;2023-02-16T03:41:13;12.67;;;8.87;;
11386;SDS011;5748;53.102;8.456;2023-02-16T03:43:40;11.20;;;8.70;;
11386;SDS011;5748;53.102;8.456;2023-02-16T03:46:07;12.03;;;8.90;;
11386;SDS011;5748;53.102;8.456;2023-02-16T03:48:36;11.83;;;9.13;;
11386;SDS011;5748;53.102;8.456;2023-02-16T03:51:03;10.87;;;8.97;;
11386;SDS011;5748;53.102;8.456;2023-02-16T03:53:30;11.43;;;9.40;;
11386;SDS011;5748;53.102;8.456;2023-02-16T03:55:57;10.90;;;9.13;;
11386;SDS011;5748;53.102;8.456;2023-02-16T03:58:24;9.97;;;8.47;;
11386;SDS011;5748;53.102;8.456;2023-02-16T04:00:51;10.73;;;8.97;;
11386;SDS011;5748;53.102;8.456;2023-02-16T04:03:19;11.27;;;9.20;;
11386;SDS011;5748;53.102;8.456;2023-02-16T04:05:47;11.23;;;9.40;;
11386;SDS011;5748;53.102;8.456;2023-02-16T04:08:14;10.27;;;9.03;;
11386;SDS011;5748;53.102;8.456;2023-02-16T04:10:42;11.20;;;9.13;;
11386;SDS011;5748;53.102;8.456;2023-02-16T04:13:09;12.93;;;9.97;;
11386;SDS011;5748;53.102;8.456;2023-02-16T04:15:35;12.83;;;9.30;;
11386;SDS011;5748;53.102;8.456;2023-02-16T04:18:02;11.53;;;9.87;;
11386;SDS011;5748;53.102;8.456;2023-02-16T04:20:31;12.27;;;9.87;;
11386;SDS011;5748;53.102;8.456;2023-02-16T04:25:41;12.20;;;9.83;;
11386;SDS011;5748;53.102;8.456;2023-02-16T04:28:08;13.50;;;9.87;;
11386;SDS011;5748;53.102;8.456;2023-02-16T04:30:35;12.90;;;9.83;;
11386;SDS011;5748;53.102;8.456;2023-02-16T04:33:02;12.50;;;10.10;;
11386;SDS011;5748;53.102;8.456;2023-02-16T04:35:29;13.23;;;9.80;;
11386;SDS011;5748;53.102;8.456;2023-02-16T04:37:56;12.73;;;9.73;;
11386;SDS011;5748;53.102;8.456;2023-02-16T04:40:25;12.23;;;9.43;;
11386;SDS011;5748;53.102;8.456;2023-02-16T04:42:52;11.33;;;9.40;;
11386;SDS011;5748;53.102;8.456;2023-02-16T04:45:19;10.87;;;8.87;;
11386;SDS011;5748;53.102;8.456;2023-02-16T04:47:46;11.60;;;9.40;;
11386;SDS011;5748;53.102;8.456;2023-02-16T04:50:13;13.33;;;10.27;;
11386;SDS011;5748;53.102;8.456;2023-02-16T04:52:40;12.47;;;9.67;;
11386;SDS011;5748;53.102;8.456;2023-02-16T04:55:07;12.50;;;9.73;;
11386;SDS011;5748;53.102;8.456;2023-02-16T04:57:36;13.60;;;10.50;;
11386;SDS011;5748;53.102;8.456;2023-02-16T05:00:03;12.07;;;10.20;;
11386;SDS011;5748;53.102;8.456;2023-02-16T05:02:32;12.40;;;9.97;;
11386;SDS011;5748;53.102;8.456;2023-02-16T05:04:59;17.33;;;10.90;;
11386;SDS011;5748;53.102;8.456;2023-02-16T05:07:28;13.17;;;10.30;;
11386;SDS011;5748;53.102;8.456;2023-02-16T05:09:55;12.10;;;10.47;;
11386;SDS011;5748;53.102;8.456;2023-02-16T05:12:22;12.90;;;10.30;;
11386;SDS011;5748;53.102;8.456;2023-02-16T05:15:17;11.10;;;9.30;;
11386;SDS011;5748;53.102;8.456;2023-02-16T05:17:50;12.70;;;10.10;;
11386;SDS011;5748;53.102;8.456;2023-02-16T05:20:17;13.37;;;10.40;;
11386;SDS011;5748;53.102;8.456;2023-02-16T05:22:52;13.50;;;10.63;;
11386;SDS011;5748;53.102;8.456;2023-02-16T05:25:24;13.70;;;10.93;;
11386;SDS011;5748;53.102;8.456;2023-02-16T05:27:54;13.73;;;11.20;;
11386;SDS011;5748;53.102;8.456;2023-02-16T05:30:22;12.50;;;10.60;;
11386;SDS011;5748;53.102;8.456;2023-02-16T05:32:49;12.73;;;10.57;;
11386;SDS011;5748;53.102;8.456;2023-02-16T05:35:16;14.17;;;11.43;;
11386;SDS011;5748;53.102;8.456;2023-02-16T05:37:43;13.43;;;10.73;;
11386;SDS011;5748;53.102;8.456;2023-02-16T05:40:11;13.80;;;11.40;;
11386;SDS011;5748;53.102;8.456;2023-02-16T05:42:38;12.13;;;10.43;;
11386;SDS011;5748;53.102;8.456;2023-02-16T05:45:06;14.63;;;11.67;;
11386;SDS011;5748;53.102;8.456;2023-02-16T05:47:42;16.03;;;12.17;;
11386;SDS011;5748;53.102;8.456;2023-02-16T05:50:10;15.10;;;12.37;;
11386;SDS011;5748;53.102;8.456;2023-02-16T05:52:37;15.10;;;12.37;;
11386;SDS011;5748;53.102;8.456;2023-02-16T05:55:05;17.17;;;13.70;;
11386;SDS011;5748;53.102;8.456;2023-02-16T05:57:36;19.77;;;15.13;;
11386;SDS011;5748;53.102;8.456;2023-02-16T06:00:12;16.00;;;13.47;;
11386;SDS011;5748;53.102;8.456;2023-02-16T06:02:42;14.67;;;12.27;;
11386;SDS011;5748;53.102;8.456;2023-02-16T06:08:01;19.03;;;15.17;;
11386;SDS011;5748;53.102;8.456;2023-02-16T06:10:28;17.47;;;13.57;;
11386;SDS011;5748;53.102;8.456;2023-02-16T06:12:55;17.33;;;13.73;;
11386;SDS011;5748;53.102;8.456;2023-02-16T06:15:22;16.30;;;12.70;;
11386;SDS011;5748;53.102;8.456;2023-02-16T06:17:51;16.63;;;13.33;;
11386;SDS011;5748;53.102;8.456;2023-02-16T06:20:18;16.80;;;12.70;;
11386;SDS011;5748;53.102;8.456;2023-02-16T06:22:45;16.00;;;12.97;;
11386;SDS011;5748;53.102;8.456;2023-02-16T06:25:12;17.37;;;13.60;;
11386;SDS011;5748;53.102;8.456;2023-02-16T06:27:39;19.00;;;13.80;;
11386;SDS011;5748;53.102;8.456;2023-02-16T06:30:07;17.57;;;13.47;;
11386;SDS011;5748;53.102;8.456;2023-02-16T06:32:34;17.17;;;13.77;;
11386;SDS011;5748;53.102;8.456;2023-02-16T06:35:03;15.83;;;12.57;;
11386;SDS011;5748;53.102;8.456;2023-02-16T06:37:30;17.13;;;13.93;;
11386;SDS011;5748;53.102;8.456;2023-02-16T06:39:57;15.67;;;12.00;;
11386;SDS011;5748;53.102;8.456;2023-02-16T06:42:24;16.97;;;12.83;;
11386;SDS011;5748;53.102;8.456;2023-02-16T06:44:51;15.63;;;12.60;;
11386;SDS011;5748;53.102;8.456;2023-02-16T06:47:18;15.70;;;12.93;;
11386;SDS011;5748;53.102;8.456;2023-02-16T06:49:45;13.93;;;10.63;;
11386;SDS011;5748;53.102;8.456;2023-02-16T06:52:13;12.87;;;10.30;;
11386;SDS011;5748;53.102;8.456;2023-02-16T06:54:40;12.30;;;10.03;;
11386;SDS011;5748;53.102;8.456;2023-02-16T06:57:07;14.83;;;12.07;;
11386;SDS011;5748;53.102;8.456;2023-02-16T06:59:43;15.17;;;11.80;;
11386;SDS011;5748;53.102;8.456;2023-02-16T07:02:10;15.43;;;12.60;;
11386;SDS011;5748;53.102;8.456;2023-02-16T07:04:37;20.27;;;15.57;;
11386;SDS011;5748;53.102;8.456;2023-02-16T07:07:04;18.37;;;14.87;;
11386;SDS011;5748;53.102;8.456;2023-02-16T07:09:39;16.43;;;12.87;;
11386;SDS011;5748;53.102;8.456;2023-02-16T07:12:06;19.60;;;16.40;;
11386;SDS011;5748;53.102;8.456;2023-02-16T07:14:33;15.57;;;12.73;;
11386;SDS011;5748;53.102;8.456;2023-02-16T07:17:00;15.87;;;12.47;;
11386;SDS011;5748;53.102;8.456;2023-02-16T07:19:28;13.73;;;11.43;;
11386;SDS011;5748;53.102;8.456;2023-02-16T07:21:57;15.40;;;11.90;;
11386;SDS011;5748;53.102;8.456;2023-02-16T07:24:24;14.43;;;11.37;;
11386;SDS011;5748;53.102;8.456;2023-02-16T07:26:52;15.83;;;12.80;;
11386;SDS011;5748;53.102;8.456;2023-02-16T07:29:20;14.07;;;11.63;;
11386;SDS011;5748;53.102;8.456;2023-02-16T07:31:55;15.33;;;11.73;;
11386;SDS011;5748;53.102;8.456;2023-02-16T07:34:23;13.50;;;11.20;;
11386;SDS011;5748;53.102;8.456;2023-02-16T07:36:50;14.93;;;12.10;;
11386;SDS011;5748;53.102;8.456;2023-02-16T07:39:17;13.53;;;11.27;;
11386;SDS011;5748;53.102;8.456;2023-02-16T07:41:44;11.90;;;10.23;;
11386;SDS011;5748;53.102;8.456;2023-02-16T07:44:13;12.07;;;10.40;;
11386;SDS011;5748;53.102;8.456;2023-02-16T07:46:40;12.90;;;9.87;;
11386;SDS011;5748;53.102;8.456;2023-02-16T07:49:07;12.60;;;10.57;;
11386;SDS011;5748;53.102;8.456;2023-02-16T07:51:34;12.10;;;10.60;;
11386;SDS011;5748;53.102;8.456;2023-02-16T07:54:00;12.03;;;10.07;;
11386;SDS011;5748;53.102;8.456;2023-02-16T07:56:28;13.27;;;11.03;;
11386;SDS011;5748;53.102;8.456;2023-02-16T07:58:58;13.17;;;10.90;;
11386;SDS011;5748;53.102;8.456;2023-02-16T08:01:28;14.07;;;11.33;;
11386;SDS011;5748;53.102;8.456;2023-02-16T08:03:56;15.13;;;11.67;;
11386;SDS011;5748;53.102;8.456;2023-02-16T08:06:23;12.40;;;10.40;;
11386;SDS011;5748;53.102;8.456;2023-02-16T08:08:51;11.97;;;10.30;;
11386;SDS011;5748;53.102;8.456;2023-02-16T08:11:19;14.83;;;11.80;;
11386;SDS011;5748;53.102;8.456;2023-02-16T08:13:48;12.20;;;10.80;;
11386;SDS011;5748;53.102;8.456;2023-02-16T08:16:16;16.10;;;12.77;;
11386;SDS011;5748;53.102;8.456;2023-02-16T08:18:47;15.23;;;12.47;;
11386;SDS011;5748;53.102;8.456;2023-02-16T08:21:16;15.53;;;12.50;;
11386;SDS011;5748;53.102;8.456;2023-02-16T08:23:46;15.57;;;12.87;;
11386;SDS011;5748;53.102;8.456;2023-02-16T08:26:18;14.03;;;11.57;;
11386;SDS011;5748;53.102;8.456;2023-02-16T08:28:47;13.13;;;10.90;;
11386;SDS011;5748;53.102;8.456;2023-02-16T08:31:16;12.60;;;10.90;;
11386;SDS011;5748;53.102;8.456;2023-02-16T08:33:44;13.60;;;10.77;;
11386;SDS011;5748;53.102;8.456;2023-02-16T08:36:16;12.90;;;10.60;;
11386;SDS011;5748;53.102;8.456;2023-02-16T08:38:44;13.23;;;10.83;;
11386;SDS011;5748;53.102;8.456;2023-02-16T08:41:14;13.17;;;11.33;;
11386;SDS011;5748;53.102;8.456;2023-02-16T08:43:41;15.73;;;12.00;;
11386;SDS011;5748;53.102;8.456;2023-02-16T08:46:08;17.57;;;14.97;;
11386;SDS011;5748;53.102;8.456;2023-02-16T08:48:35;16.13;;;13.17;;
11386;SDS011;5748;53.102;8.456;2023-02-16T08:51:05;17.27;;;14.07;;
11386;SDS011;5748;53.102;8.456;2023-02-16T08:53:33;16.93;;;14.20;;
11386;SDS011;5748;53.102;8.456;2023-02-16T08:56:02;15.37;;;12.50;;
11386;SDS011;5748;53.102;8.456;2023-02-16T08:58:30;15.80;;;12.83;;
11386;SDS011;5748;53.102;8.456;2023-02-16T09:00:57;16.20;;;13.20;;
11386;SDS011;5748;53.102;8.456;2023-02-16T09:03:29;16.50;;;13.50;;
11386;SDS011;5748;53.102;8.456;2023-02-16T09:05:57;15.90;;;12.27;;
11386;SDS011;5748;53.102;8.456;2023-02-16T09:08:30;17.47;;;13.77;;
11386;SDS011;5748;53.102;8.456;2023-02-16T09:10:59;17.67;;;13.67;;
11386;SDS011;5748;53.102;8.456;2023-02-16T09:13:27;18.40;;;14.10;;
11386;SDS011;5748;53.102;8.456;2023-02-16T09:15:54;21.87;;;17.33;;
11386;SDS011;5748;53.102;8.456;2023-02-16T09:18:27;18.47;;;14.67;;
11386;SDS011;5748;53.102;8.456;2023-02-16T09:20:54;17.93;;;14.07;;
11386;SDS011;5748;53.102;8.456;2023-02-16T09:23:22;16.17;;;12.93;;
11386;SDS011;5748;53.102;8.456;2023-02-16T09:25:51;14.93;;;12.77;;
11386;SDS011;5748;53.102;8.456;2023-02-16T09:28:18;15.03;;;13.03;;
11386;SDS011;5748;53.102;8.456;2023-02-16T09:30:45;15.33;;;13.37;;
11386;SDS011;5748;53.102;8.456;2023-02-16T09:33:12;15.27;;;12.90;;
11386;SDS011;5748;53.102;8.456;2023-02-16T09:35:39;15.40;;;12.37;;
11386;SDS011;5748;53.102;8.456;2023-02-16T09:38:06;17.33;;;13.83;;
11386;SDS011;5748;53.102;8.456;2023-02-16T09:40:35;14.63;;;12.60;;
11386;SDS011;5748;53.102;8.456;2023-02-16T09:43:05;16.10;;;13.47;;
11386;SDS011;5748;53.102;8.456;2023-02-16T09:45:43;16.77;;;14.97;;
11386;SDS011;5748;53.102;8.456;2023-02-16T09:48:20;18.23;;;15.73;;
11386;SDS011;5748;53.102;8.456;2023-02-16T09:50:56;16.23;;;14.47;;
11386;SDS011;5748;53.102;8.456;2023-02-16T09:53:36;17.57;;;15.23;;
11386;SDS011;5748;53.102;8.456;2023-02-16T09:56:07;15.93;;;13.90;;
11386;SDS011;5748;53.102;8.456;2023-02-16T09:58:45;18.47;;;14.70;;
11386;SDS011;5748;53.102;8.456;2023-02-16T10:01:19;16.13;;;13.87;;
11386;SDS011;5748;53.102;8.456;2023-02-16T10:03:59;19.77;;;16.33;;
11386;SDS011;5748;53.102;8.456;2023-02-16T10:06:48;19.40;;;16.13;;
11386;SDS011;5748;53.102;8.456;2023-02-16T10:09:25;16.90;;;14.83;;
11386;SDS011;5748;53.102;8.456;2023-02-16T10:11:54;17.00;;;14.87;;
11386;SDS011;5748;53.102;8.456;2023-02-16T10:14:30;17.03;;;13.73;;
11386;SDS011;5748;53.102;8.456;2023-02-16T10:17:07;17.50;;;13.70;;
11386;SDS011;5748;53.102;8.456;2023-02-16T10:19:42;15.33;;;13.73;;
11386;SDS011;5748;53.102;8.456;2023-02-16T10:22:15;15.90;;;13.50;;
11386;SDS011;5748;53.102;8.456;2023-02-16T10:24:52;18.23;;;14.57;;
11386;SDS011;5748;53.102;8.456;2023-02-16T10:27:26;17.90;;;14.67;;
11386;SDS011;5748;53.102;8.456;2023-02-16T10:30:01;17.03;;;14.70;;
11386;SDS011;5748;53.102;8.456;2023-02-16T10:32:38;16.73;;;13.77;;
11386;SDS011;5748;53.102;8.456;2023-02-16T10:35:20;14.53;;;12.90;;
11386;SDS011;5748;53.102;8.456;2023-02-16T10:37:58;17.43;;;14.00;;
11386;SDS011;5748;53.102;8.456;2023-02-16T10:40:32;16.27;;;13.27;;
11386;SDS011;5748;53.102;8.456;2023-02-16T10:43:10;17.23;;;14.57;;
11386;SDS011;5748;53.102;8.456;2023-02-16T10:45:48;16.87;;;13.80;;
11386;SDS011;5748;53.102;8.456;2023-02-16T10:48:18;16.30;;;13.27;;
11386;SDS011;5748;53.102;8.456;2023-02-16T10:50:49;15.97;;;13.60;;
11386;SDS011;5748;53.102;8.456;2023-02-16T10:53:25;14.40;;;12.30;;
11386;SDS011;5748;53.102;8.456;2023-02-16T10:56:10;14.83;;;12.53;;
11386;SDS011;5748;53.102;8.456;2023-02-16T10:59:11;14.63;;;12.70;;
11386;SDS011;5748;53.102;8.456;2023-02-16T11:01:44;15.17;;;13.10;;
11386;SDS011;5748;53.102;8.456;2023-02-16T11:04:32;15.70;;;13.07;;
11386;SDS011;5748;53.102;8.456;2023-02-16T11:07:07;17.20;;;14.43;;
11386;SDS011;5748;53.102;8.456;2023-02-16T11:09:36;15.10;;;13.27;;
11386;SDS011;5748;53.102;8.456;2023-02-16T11:12:12;16.00;;;13.20;;
11386;SDS011;5748;53.102;8.456;2023-02-16T11:14:46;16.03;;;12.80;;
11386;SDS011;5748;53.102;8.456;2023-02-16T11:17:17;15.23;;;12.67;;
11386;SDS011;5748;53.102;8.456;2023-02-16T11:19:49;13.90;;;12.10;;
11386;SDS011;5748;53.102;8.456;2023-02-16T11:22:27;17.13;;;14.33;;
11386;SDS011;5748;53.102;8.456;2023-02-16T11:25:21;17.33;;;14.73;;
11386;SDS011;5748;53.102;8.456;2023-02-16T11:27:52;13.13;;;11.40;;
11386;SDS011;5748;53.102;8.456;2023-02-16T11:30:27;14.07;;;12.40;;
11386;SDS011;5748;53.102;8.456;2023-02-16T11:32:58;12.80;;;11.43;;
11386;SDS011;5748;53.102;8.456;2023-02-16T11:35:28;14.73;;;12.50;;
11386;SDS011;5748;53.102;8.456;2023-02-16T11:37:57;13.60;;;11.80;;
11386;SDS011;5748;53.102;8.456;2023-02-16T11:40:25;14.37;;;12.13;;
11386;SDS011;5748;53.102;8.456;2023-02-16T11:42:56;13.10;;;11.47;;
11386;SDS011;5748;53.102;8.456;2023-02-16T11:45:26;13.60;;;12.00;;
11386;SDS011;5748;53.102;8.456;2023-02-16T11:47:56;14.07;;;11.80;;
11386;SDS011;5748;53.102;8.456;2023-02-16T11:50:27;14.60;;;12.57;;
11386;SDS011;5748;53.102;8.456;2023-02-16T11:52:57;13.93;;;11.20;;
11386;SDS011;5748;53.102;8.456;2023-02-16T11:55:40;13.80;;;11.93;;
11386;SDS011;5748;53.102;8.456;2023-02-16T11:58:14;13.63;;;11.73;;
11386;SDS011;5748;53.102;8.456;2023-02-16T12:00:45;13.70;;;12.23;;
11386;SDS011;5748;53.102;8.456;2023-02-16T12:03:27;14.00;;;11.63;;
11386;SDS011;5748;53.102;8.456;2023-02-16T12:06:19;16.00;;;12.07;;
11386;SDS011;5748;53.102;8.456;2023-02-16T12:09:07;16.27;;;12.70;;
11386;SDS011;5748;53.102;8.456;2023-02-16T12:11:49;16.43;;;13.40;;
11386;SDS011;5748;53.102;8.456;2023-02-16T12:14:42;15.00;;;12.67;;
11386;SDS011;5748;53.102;8.456;2023-02-16T12:17:30;14.63;;;12.30;;
11386;SDS011;5748;53.102;8.456;2023-02-16T12:20:15;15.30;;;13.30;;
11386;SDS011;5748;53.102;8.456;2023-02-16T12:23:10;16.73;;;13.10;;
11386;SDS011;5748;53.102;8.456;2023-02-16T12:25:51;15.13;;;12.67;;
11386;SDS011;5748;53.102;8.456;2023-02-16T12:28:32;14.43;;;12.60;;
11386;SDS011;5748;53.102;8.456;2023-02-16T12:31:07;14.60;;;12.20;;
11386;SDS011;5748;53.102;8.456;2023-02-16T12:33:47;16.60;;;12.93;;
11386;SDS011;5748;53.102;8.456;2023-02-16T12:36:34;15.70;;;12.90;;
11386;SDS011;5748;53.102;8.456;2023-02-16T12:39:15;15.40;;;12.67;;
11386;SDS011;5748;53.102;8.456;2023-02-16T12:44:45;17.30;;;14.63;;
11386;SDS011;5748;53.102;8.456;2023-02-16T12:47:18;19.27;;;15.47;;
11386;SDS011;5748;53.102;8.456;2023-02-16T12:49:50;16.43;;;14.20;;
11386;SDS011;5748;53.102;8.456;2023-02-16T12:52:29;14.43;;;12.50;;
11386;SDS011;5748;53.102;8.456;2023-02-16T12:55:07;14.27;;;12.00;;
11386;SDS011;5748;53.102;8.456;2023-02-16T12:57:46;14.43;;;11.80;;
11386;SDS011;5748;53.102;8.456;2023-02-16T13:00:22;14.27;;;11.90;;
11386;SDS011;5748;53.102;8.456;2023-02-16T13:03:02;12.47;;;10.80;;
11386;SDS011;5748;53.102;8.456;2023-02-16T13:05:57;14.40;;;11.73;;
11386;SDS011;5748;53.102;8.456;2023-02-16T13:08:38;12.70;;;11.13;;
11386;SDS011;5748;53.102;8.456;2023-02-16T13:11:12;13.17;;;10.97;;
11386;SDS011;5748;53.102;8.456;2023-02-16T13:13:46;15.73;;;11.60;;
11386;SDS011;5748;53.102;8.456;2023-02-16T13:16:18;15.93;;;13.13;;
11386;SDS011;5748;53.102;8.456;2023-02-16T13:18:50;14.57;;;12.53;;
11386;SDS011;5748;53.102;8.456;2023-02-16T13:21:27;15.07;;;12.70;;
11386;SDS011;5748;53.102;8.456;2023-02-16T13:24:52;12.70;;;10.50;;
11386;SDS011;5748;53.102;8.456;2023-02-16T13:27:34;14.90;;;12.20;;
11386;SDS011;5748;53.102;8.456;2023-02-16T13:33:37;16.80;;;13.67;;
11386;SDS011;5748;53.102;8.456;2023-02-16T13:36:24;15.60;;;12.83;;
11386;SDS011;5748;53.102;8.456;2023-02-16T13:45:11;18.97;;;15.43;;
11386;SDS011;5748;53.102;8.456;2023-02-16T13:47:41;15.87;;;13.07;;
11386;SDS011;5748;53.102;8.456;2023-02-16T13:50:19;14.40;;;12.33;;
11386;SDS011;5748;53.102;8.456;2023-02-16T13:52:55;14.67;;;11.60;;
11386;SDS011;5748;53.102;8.456;2023-02-16T13:55:33;20.07;;;15.87;;
11386;SDS011;5748;53.102;8.456;2023-02-16T13:58:06;21.20;;;17.17;;
11386;SDS011;5748;53.102;8.456;2023-02-16T14:00:52;19.20;;;15.37;;
11386;SDS011;5748;53.102;8.456;2023-02-16T14:03:36;17.80;;;13.17;;
11386;SDS011;5748;53.102;8.456;2023-02-16T14:12:20;16.93;;;13.83;;
11386;SDS011;5748;53.102;8.456;2023-02-16T14:14:57;19.00;;;14.63;;
11386;SDS011;5748;53.102;8.456;2023-02-16T14:17:31;18.07;;;14.60;;
11386;SDS011;5748;53.102;8.456;2023-02-16T14:20:01;17.47;;;13.20;;
11386;SDS011;5748;53.102;8.456;2023-02-16T14:22:32;16.23;;;13.77;;
11386;SDS011;5748;53.102;8.456;2023-02-16T14:25:29;17.93;;;14.93;;
11386;SDS011;5748;53.102;8.456;2023-02-16T14:28:01;15.03;;;12.80;;
11386;SDS011;5748;53.102;8.456;2023-02-16T14:30:33;16.90;;;13.90;;
11386;SDS011;5748;53.102;8.456;2023-02-16T14:33:14;20.90;;;16.30;;
11386;SDS011;5748;53.102;8.456;2023-02-16T14:36:00;16.63;;;13.50;;
11386;SDS011;5748;53.102;8.456;2023-02-16T14:38:33;18.20;;;13.03;;
11386;SDS011;5748;53.102;8.456;2023-02-16T14:41:02;15.07;;;12.97;;
11386;SDS011;5748;53.102;8.456;2023-02-16T14:43:33;14.20;;;12.10;;
11386;SDS011;5748;53.102;8.456;2023-02-16T14:46:11;14.90;;;12.40;;
11386;SDS011;5748;53.102;8.456;2023-02-16T14:58:43;15.73;;;12.73;;
11386;SDS011;5748;53.102;8.456;2023-02-16T15:01:19;15.03;;;12.00;;
11386;SDS011;5748;53.102;8.456;2023-02-16T15:03:48;13.33;;;11.23;;
11386;SDS011;5748;53.102;8.456;2023-02-16T15:06:19;14.33;;;11.67;;
11386;SDS011;5748;53.102;8.456;2023-02-16T15:08:54;15.43;;;12.47;;
11386;SDS011;5748;53.102;8.456;2023-02-16T15:11:28;14.23;;;11.07;;
11386;SDS011;5748;53.102;8.456;2023-02-16T15:14:03;13.83;;;11.33;;
11386;SDS011;5748;53.102;8.456;2023-02-16T15:16:38;15.60;;;13.07;;
11386;SDS011;5748;53.102;8.456;2023-02-16T15:19:08;18.13;;;14.83;;
11386;SDS011;5748;53.102;8.456;2023-02-16T15:21:41;17.97;;;14.27;;
11386;SDS011;5748;53.102;8.456;2023-02-16T15:24:19;16.23;;;12.80;;
11386;SDS011;5748;53.102;8.456;2023-02-16T15:26:51;13.37;;;11.07;;
11386;SDS011;5748;53.102;8.456;2023-02-16T15:29:21;13.17;;;11.17;;
11386;SDS011;5748;53.102;8.456;2023-02-16T15:31:52;12.53;;;10.50;;
11386;SDS011;5748;53.102;8.456;2023-02-16T15:34:28;12.23;;;10.13;;
11386;SDS011;5748;53.102;8.456;2023-02-16T15:36:59;14.17;;;10.93;;
11386;SDS011;5748;53.102;8.456;2023-02-16T15:39:28;11.57;;;9.77;;
11386;SDS011;5748;53.102;8.456;2023-02-16T15:42:08;11.80;;;10.13;;
11386;SDS011;5748;53.102;8.456;2023-02-16T15:44:44;12.93;;;10.17;;
11386;SDS011;5748;53.102;8.456;2023-02-16T15:47:14;12.13;;;9.70;;
11386;SDS011;5748;53.102;8.456;2023-02-16T15:49:46;11.27;;;9.73;;
11386;SDS011;5748;53.102;8.456;2023-02-16T15:52:14;12.33;;;10.23;;
11386;SDS011;5748;53.102;8.456;2023-02-16T15:54:46;10.40;;;9.30;;
11386;SDS011;5748;53.102;8.456;2023-02-16T15:57:17;11.83;;;10.10;;
11386;SDS011;5748;53.102;8.456;2023-02-16T15:59:47;11.87;;;9.73;;